sensor_id;sensor_type;location;lat;lon;timestamp;pressure;altitude;pressure_sealevel;temperature;humidity
33153;BME280;19509;43.862;26.176;2023-10-19T00:02:02;100865.69;;;7.87;75.40
33153;BME280;19509;43.862;26.176;2023-10-19T00:04:28;100862.81;;;7.88;76.03
33153;BME280;19509;43.862;26.176;2023-10-19T00:06:58;100861.97;;;7.88;75.81
33153;BME280;19509;43.862;26.176;2023-10-19T00:09:24;100863.72;;;7.80;75.76
33153;BME280;19509;43.862;26.176;2023-10-19T00:11:51;100859.75;;;7.76;76.06
33153;BME280;19509;43.862;26.176;2023-10-19T00:14:17;100852.94;;;7.74;75.95
33153;BME280;19509;43.862;26.176;2023-10-19T00:16:44;100853.69;;;7.68;76.41
33153;BME280;19509;43.862;26.176;2023-10-19T00:19:18;100856.72;;;7.65;76.61
33153;BME280;19509;43.862;26.176;2023-10-19T00:21:45;100853.13;;;7.57;76.47
33153;BME280;19509;43.862;26.176;2023-10-19T00:24:20;100850.25;;;7.59;76.23
33153;BME280;19509;43.862;26.176;2023-10-19T00:26:48;100840.09;;;7.54;76.70
33153;BME280;19509;43.862;26.176;2023-10-19T00:29:17;100846.19;;;7.48;77.10
33153;BME280;19509;43.862;26.176;2023-10-19T00:31:57;100848.22;;;7.46;76.98
33153;BME280;19509;43.862;26.176;2023-10-19T00:34:23;100839.34;;;7.46;77.44
33153;BME280;19509;43.862;26.176;2023-10-19T00:36:50;100838.69;;;7.44;77.64
33153;BME280;19509;43.862;26.176;2023-10-19T00:39:17;100831.41;;;7.38;77.59
33153;BME280;19509;43.862;26.176;2023-10-19T00:41:52;100834.91;;;7.38;77.81
33153;BME280;19509;43.862;26.176;2023-10-19T00:44:22;100832.03;;;7.40;77.88
33153;BME280;19509;43.862;26.176;2023-10-19T00:46:50;100827.91;;;7.37;78.72
33153;BME280;19509;43.862;26.176;2023-10-19T00:49:26;100831.13;;;7.32;78.63
33153;BME280;19509;43.862;26.176;2023-10-19T00:51:53;100827.41;;;7.33;78.75
33153;BME280;19509;43.862;26.176;2023-10-19T00:54:32;100828.28;;;7.34;78.55
33153;BME280;19509;43.862;26.176;2023-10-19T00:57:02;100820.25;;;7.34;78.94
33153;BME280;19509;43.862;26.176;2023-10-19T00:59:41;100820.03;;;7.35;78.72
33153;BME280;19509;43.862;26.176;2023-10-19T01:02:20;100820.59;;;7.31;79.33
33153;BME280;19509;43.862;26.176;2023-10-19T01:04:50;100823.09;;;7.32;79.21
33153;BME280;19509;43.862;26.176;2023-10-19T01:07:22;100809.59;;;7.26;79.12
33153;BME280;19509;43.862;26.176;2023-10-19T01:10:00;100823.91;;;7.18;79.32
33153;BME280;19509;43.862;26.176;2023-10-19T01:12:26;100810.53;;;7.18;79.49
33153;BME280;19509;43.862;26.176;2023-10-19T01:15:11;100814.59;;;7.14;78.87
33153;BME280;19509;43.862;26.176;2023-10-19T01:17:49;100815.16;;;7.24;78.91
33153;BME280;19509;43.862;26.176;2023-10-19T01:20:20;100806.19;;;7.17;78.14
33153;BME280;19509;43.862;26.176;2023-10-19T01:23:09;100810.75;;;6.94;78.81
33153;BME280;19509;43.862;26.176;2023-10-19T01:28:08;100812.22;;;6.96;79.85
33153;BME280;19509;43.862;26.176;2023-10-19T01:30:35;100802.19;;;6.98;78.93
33153;BME280;19509;43.862;26.176;2023-10-19T01:33:02;100802.44;;;6.88;79.50
33153;BME280;19509;43.862;26.176;2023-10-19T01:35:29;100806.59;;;6.91;79.15
33153;BME280;19509;43.862;26.176;2023-10-19T01:38:15;100800.66;;;6.81;79.46
33153;BME280;19509;43.862;26.176;2023-10-19T01:40:41;100808.22;;;6.77;79.98
33153;BME280;19509;43.862;26.176;2023-10-19T01:43:12;100809.59;;;6.73;79.49
33153;BME280;19509;43.862;26.176;2023-10-19T01:45:46;100815.34;;;6.62;78.94
33153;BME280;19509;43.862;26.176;2023-10-19T01:48:12;100815.09;;;6.49;78.98
33153;BME280;19509;43.862;26.176;2023-10-19T01:50:39;100815.66;;;6.44;78.78
33153;BME280;19509;43.862;26.176;2023-10-19T01:53:05;100821.69;;;6.38;78.95
33153;BME280;19509;43.862;26.176;2023-10-19T01:55:41;100816.41;;;6.30;79.60
33153;BME280;19509;43.862;26.176;2023-10-19T01:58:08;100814.75;;;6.29;79.76
33153;BME280;19509;43.862;26.176;2023-10-19T02:00:34;100811.78;;;6.24;79.98
33153;BME280;19509;43.862;26.176;2023-10-19T02:03:06;100817.31;;;6.22;80.10
33153;BME280;19509;43.862;26.176;2023-10-19T02:05:33;100807.94;;;6.26;80.30
33153;BME280;19509;43.862;26.176;2023-10-19T02:08:06;100814.28;;;6.25;80.93
33153;BME280;19509;43.862;26.176;2023-10-19T02:10:33;100814.03;;;6.35;80.49
33153;BME280;19509;43.862;26.176;2023-10-19T02:13:00;100805.38;;;6.33;80.69
33153;BME280;19509;43.862;26.176;2023-10-19T02:15:25;100814.69;;;6.37;80.24
33153;BME280;19509;43.862;26.176;2023-10-19T02:17:52;100812.09;;;6.29;80.33
33153;BME280;19509;43.862;26.176;2023-10-19T02:20:19;100814.75;;;6.29;81.04
33153;BME280;19509;43.862;26.176;2023-10-19T02:22:49;100813.22;;;6.34;80.74
33153;BME280;19509;43.862;26.176;2023-10-19T02:25:17;100804.00;;;6.37;80.80
33153;BME280;19509;43.862;26.176;2023-10-19T02:27:44;100805.38;;;6.33;80.99
33153;BME280;19509;43.862;26.176;2023-10-19T02:30:10;100806.44;;;6.24;80.63
33153;BME280;19509;43.862;26.176;2023-10-19T02:32:36;100800.97;;;6.17;80.27
33153;BME280;19509;43.862;26.176;2023-10-19T02:35:02;100794.56;;;5.87;79.04
33153;BME280;19509;43.862;26.176;2023-10-19T02:37:28;100797.63;;;5.76;78.91
33153;BME280;19509;43.862;26.176;2023-10-19T02:39:54;100803.66;;;5.69;79.61
33153;BME280;19509;43.862;26.176;2023-10-19T02:42:19;100806.88;;;5.65;79.73
33153;BME280;19509;43.862;26.176;2023-10-19T02:44:47;100799.63;;;5.74;80.72
33153;BME280;19509;43.862;26.176;2023-10-19T02:47:16;100802.09;;;5.83;81.45
33153;BME280;19509;43.862;26.176;2023-10-19T02:49:42;100801.03;;;6.01;81.74
33153;BME280;19509;43.862;26.176;2023-10-19T02:52:09;100795.22;;;5.97;81.77
33153;BME280;19509;43.862;26.176;2023-10-19T02:54:38;100803.44;;;5.96;81.49
33153;BME280;19509;43.862;26.176;2023-10-19T02:57:05;100800.59;;;5.89;81.19
33153;BME280;19509;43.862;26.176;2023-10-19T02:59:35;100807.44;;;5.91;80.08
33153;BME280;19509;43.862;26.176;2023-10-19T03:02:01;100796.41;;;5.86;79.94
33153;BME280;19509;43.862;26.176;2023-10-19T03:04:36;100796.63;;;5.77;79.76
33153;BME280;19509;43.862;26.176;2023-10-19T03:07:04;100776.47;;;5.74;80.65
33153;BME280;19509;43.862;26.176;2023-10-19T03:09:30;100792.28;;;5.76;81.63
33153;BME280;19509;43.862;26.176;2023-10-19T03:11:57;100786.91;;;5.84;82.31
33153;BME280;19509;43.862;26.176;2023-10-19T03:14:29;100787.91;;;5.91;82.38
33153;BME280;19509;43.862;26.176;2023-10-19T03:16:57;100788.22;;;5.96;81.62
33153;BME280;19509;43.862;26.176;2023-10-19T03:19:23;100792.22;;;5.92;81.56
33153;BME280;19509;43.862;26.176;2023-10-19T03:21:50;100785.72;;;5.86;81.47
33153;BME280;19509;43.862;26.176;2023-10-19T03:24:17;100779.91;;;5.83;81.89
33153;BME280;19509;43.862;26.176;2023-10-19T03:27:06;100785.91;;;5.93;82.43
33153;BME280;19509;43.862;26.176;2023-10-19T03:29:42;100784.03;;;6.02;82.40
33153;BME280;19509;43.862;26.176;2023-10-19T03:32:11;100782.34;;;6.01;82.65
33153;BME280;19509;43.862;26.176;2023-10-19T03:34:39;100784.03;;;6.02;82.72
33153;BME280;19509;43.862;26.176;2023-10-19T03:37:08;100779.38;;;5.96;83.11
33153;BME280;19509;43.862;26.176;2023-10-19T03:39:39;100775.38;;;5.91;83.37
33153;BME280;19509;43.862;26.176;2023-10-19T03:42:06;100771.53;;;5.94;83.51
33153;BME280;19509;43.862;26.176;2023-10-19T03:44:34;100769.34;;;5.89;83.89
33153;BME280;19509;43.862;26.176;2023-10-19T03:47:26;100767.09;;;5.78;84.25
33153;BME280;19509;43.862;26.176;2023-10-19T03:50:01;100765.72;;;5.82;83.13
33153;BME280;19509;43.862;26.176;2023-10-19T03:52:34;100764.69;;;5.91;83.10
33153;BME280;19509;43.862;26.176;2023-10-19T03:55:03;100765.88;;;5.89;83.18
33153;BME280;19509;43.862;26.176;2023-10-19T03:57:31;100766.53;;;5.91;82.97
33153;BME280;19509;43.862;26.176;2023-10-19T04:00:00;100759.22;;;5.85;82.76
33153;BME280;19509;43.862;26.176;2023-10-19T04:02:26;100757.41;;;5.77;83.20
33153;BME280;19509;43.862;26.176;2023-10-19T04:04:54;100758.41;;;5.76;82.02
33153;BME280;19509;43.862;26.176;2023-10-19T04:07:22;100752.63;;;5.64;81.87
33153;BME280;19509;43.862;26.176;2023-10-19T04:09:53;100742.31;;;5.53;81.87
33153;BME280;19509;43.862;26.176;2023-10-19T04:12:40;100744.84;;;5.55;81.95
33153;BME280;19509;43.862;26.176;2023-10-19T04:15:10;100748.88;;;5.42;82.54
33153;BME280;19509;43.862;26.176;2023-10-19T04:17:36;100748.09;;;5.26;82.93
33153;BME280;19509;43.862;26.176;2023-10-19T04:20:02;100743.09;;;5.31;83.45
33153;BME280;19509;43.862;26.176;2023-10-19T04:22:38;100746.75;;;5.30;83.83
33153;BME280;19509;43.862;26.176;2023-10-19T04:25:05;100745.91;;;5.29;83.91
33153;BME280;19509;43.862;26.176;2023-10-19T04:27:31;100738.09;;;5.28;83.61
33153;BME280;19509;43.862;26.176;2023-10-19T04:30:01;100736.41;;;5.35;83.91
33153;BME280;19509;43.862;26.176;2023-10-19T04:32:27;100734.59;;;5.27;84.17
33153;BME280;19509;43.862;26.176;2023-10-19T04:34:53;100731.44;;;5.24;84.04
33153;BME280;19509;43.862;26.176;2023-10-19T04:37:19;100738.25;;;5.26;83.58
33153;BME280;19509;43.862;26.176;2023-10-19T04:39:45;100734.47;;;5.20;83.25
33153;BME280;19509;43.862;26.176;2023-10-19T04:42:11;100735.81;;;5.16;83.57
33153;BME280;19509;43.862;26.176;2023-10-19T04:44:37;100741.69;;;5.04;84.05
33153;BME280;19509;43.862;26.176;2023-10-19T04:47:02;100744.97;;;5.06;84.28
33153;BME280;19509;43.862;26.176;2023-10-19T04:49:28;100745.75;;;5.31;83.88
33153;BME280;19509;43.862;26.176;2023-10-19T04:51:54;100750.41;;;5.37;85.23
33153;BME280;19509;43.862;26.176;2023-10-19T04:54:19;100743.19;;;5.45;85.45
33153;BME280;19509;43.862;26.176;2023-10-19T04:56:45;100748.38;;;5.47;85.14
33153;BME280;19509;43.862;26.176;2023-10-19T04:59:10;100753.19;;;5.52;83.65
33153;BME280;19509;43.862;26.176;2023-10-19T05:01:36;100757.91;;;5.41;81.83
33153;BME280;19509;43.862;26.176;2023-10-19T05:04:02;100752.47;;;5.18;81.78
33153;BME280;19509;43.862;26.176;2023-10-19T05:06:28;100749.69;;;5.04;81.99
33153;BME280;19509;43.862;26.176;2023-10-19T05:08:53;100742.66;;;5.11;81.61
33153;BME280;19509;43.862;26.176;2023-10-19T05:11:19;100749.81;;;5.10;81.79
33153;BME280;19509;43.862;26.176;2023-10-19T05:13:44;100745.13;;;5.20;82.05
33153;BME280;19509;43.862;26.176;2023-10-19T05:16:10;100755.91;;;5.35;81.83
33153;BME280;19509;43.862;26.176;2023-10-19T05:18:36;100743.34;;;5.52;80.96
33153;BME280;19509;43.862;26.176;2023-10-19T05:21:01;100750.41;;;5.76;80.04
33153;BME280;19509;43.862;26.176;2023-10-19T05:23:27;100749.81;;;5.97;79.89
33153;BME280;19509;43.862;26.176;2023-10-19T05:26:01;100757.50;;;6.23;80.04
33153;BME280;19509;43.862;26.176;2023-10-19T05:28:27;100748.41;;;6.32;79.65
33153;BME280;19509;43.862;26.176;2023-10-19T05:30:53;100749.88;;;6.35;79.73
33153;BME280;19509;43.862;26.176;2023-10-19T05:33:19;100744.38;;;6.36;79.34
33153;BME280;19509;43.862;26.176;2023-10-19T05:35:49;100745.44;;;6.50;79.79
33153;BME280;19509;43.862;26.176;2023-10-19T05:38:16;100743.84;;;6.79;80.23
33153;BME280;19509;43.862;26.176;2023-10-19T05:40:42;100741.94;;;7.02;77.69
33153;BME280;19509;43.862;26.176;2023-10-19T05:43:11;100748.13;;;7.18;77.75
33153;BME280;19509;43.862;26.176;2023-10-19T05:45:39;100758.66;;;7.34;77.50
33153;BME280;19509;43.862;26.176;2023-10-19T05:48:05;100744.97;;;7.58;77.24
33153;BME280;19509;43.862;26.176;2023-10-19T05:50:35;100743.38;;;7.79;77.17
33153;BME280;19509;43.862;26.176;2023-10-19T05:53:04;100745.63;;;7.97;77.08
33153;BME280;19509;43.862;26.176;2023-10-19T05:55:30;100748.72;;;8.15;75.69
33153;BME280;19509;43.862;26.176;2023-10-19T05:57:56;100744.78;;;8.33;75.30
33153;BME280;19509;43.862;26.176;2023-10-19T06:00:22;100749.94;;;8.56;75.32
33153;BME280;19509;43.862;26.176;2023-10-19T06:02:51;100742.94;;;8.83;74.16
33153;BME280;19509;43.862;26.176;2023-10-19T06:05:17;100749.75;;;9.13;73.88
33153;BME280;19509;43.862;26.176;2023-10-19T06:07:47;100757.84;;;9.48;73.39
33153;BME280;19509;43.862;26.176;2023-10-19T06:10:19;100756.09;;;9.75;73.37
33153;BME280;19509;43.862;26.176;2023-10-19T06:12:47;100754.91;;;9.98;72.60
33153;BME280;19509;43.862;26.176;2023-10-19T06:15:15;100755.59;;;10.13;71.86
33153;BME280;19509;43.862;26.176;2023-10-19T06:17:41;100765.16;;;10.29;71.94
33153;BME280;19509;43.862;26.176;2023-10-19T06:20:09;100758.97;;;10.48;71.46
33153;BME280;19509;43.862;26.176;2023-10-19T06:22:46;100754.66;;;10.67;70.61
33153;BME280;19509;43.862;26.176;2023-10-19T06:25:19;100761.47;;;10.89;70.02
33153;BME280;19509;43.862;26.176;2023-10-19T06:27:47;100754.44;;;11.02;69.40
33153;BME280;19509;43.862;26.176;2023-10-19T06:30:14;100747.53;;;11.32;69.54
33153;BME280;19509;43.862;26.176;2023-10-19T06:32:57;100755.31;;;11.60;69.10
33153;BME280;19509;43.862;26.176;2023-10-19T06:35:27;100743.84;;;11.85;68.11
33153;BME280;19509;43.862;26.176;2023-10-19T06:37:53;100742.25;;;12.09;67.15
33153;BME280;19509;43.862;26.176;2023-10-19T06:40:20;100747.50;;;12.36;67.47
33153;BME280;19509;43.862;26.176;2023-10-19T06:42:48;100744.78;;;12.67;65.93
33153;BME280;19509;43.862;26.176;2023-10-19T06:45:15;100751.75;;;13.00;66.40
33153;BME280;19509;43.862;26.176;2023-10-19T06:47:45;100749.94;;;13.37;65.00
33153;BME280;19509;43.862;26.176;2023-10-19T06:50:16;100759.25;;;13.78;64.38
33153;BME280;19509;43.862;26.176;2023-10-19T06:52:43;100753.50;;;14.05;63.24
33153;BME280;19509;43.862;26.176;2023-10-19T06:55:10;100747.34;;;14.28;62.05
33153;BME280;19509;43.862;26.176;2023-10-19T06:57:44;100743.56;;;14.59;60.86
33153;BME280;19509;43.862;26.176;2023-10-19T07:00:11;100750.75;;;14.77;60.37
33153;BME280;19509;43.862;26.176;2023-10-19T07:02:48;100746.09;;;14.96;59.88
33153;BME280;19509;43.862;26.176;2023-10-19T07:05:14;100739.47;;;15.03;59.37
33153;BME280;19509;43.862;26.176;2023-10-19T07:07:44;100742.88;;;15.10;59.08
33153;BME280;19509;43.862;26.176;2023-10-19T07:10:14;100743.38;;;15.19;58.83
33153;BME280;19509;43.862;26.176;2023-10-19T07:12:44;100737.00;;;15.25;58.67
33153;BME280;19509;43.862;26.176;2023-10-19T07:15:09;100723.16;;;15.38;58.38
33153;BME280;19509;43.862;26.176;2023-10-19T07:17:48;100728.56;;;15.50;57.90
33153;BME280;19509;43.862;26.176;2023-10-19T07:20:16;100718.47;;;15.46;57.46
33153;BME280;19509;43.862;26.176;2023-10-19T07:22:51;100721.38;;;15.44;57.44
33153;BME280;19509;43.862;26.176;2023-10-19T07:25:17;100724.91;;;15.56;57.39
33153;BME280;19509;43.862;26.176;2023-10-19T07:27:50;100718.25;;;15.76;57.27
33153;BME280;19509;43.862;26.176;2023-10-19T07:30:19;100714.88;;;15.97;55.88
33153;BME280;19509;43.862;26.176;2023-10-19T07:32:51;100708.25;;;16.05;55.90
33153;BME280;19509;43.862;26.176;2023-10-19T07:35:21;100698.81;;;16.24;55.19
33153;BME280;19509;43.862;26.176;2023-10-19T07:37:47;100704.75;;;16.38;54.52
33153;BME280;19509;43.862;26.176;2023-10-19T07:40:14;100690.59;;;16.36;54.40
33153;BME280;19509;43.862;26.176;2023-10-19T07:42:40;100694.56;;;16.45;54.54
33153;BME280;19509;43.862;26.176;2023-10-19T07:45:08;100689.59;;;16.59;53.82
33153;BME280;19509;43.862;26.176;2023-10-19T07:47:37;100688.03;;;16.63;53.24
33153;BME280;19509;43.862;26.176;2023-10-19T07:50:07;100691.09;;;16.84;53.47
33153;BME280;19509;43.862;26.176;2023-10-19T07:52:38;100691.91;;;16.84;52.75
33153;BME280;19509;43.862;26.176;2023-10-19T07:55:05;100691.81;;;16.96;52.44
33153;BME280;19509;43.862;26.176;2023-10-19T07:57:30;100692.19;;;17.05;52.28
33153;BME280;19509;43.862;26.176;2023-10-19T07:59:56;100696.41;;;17.12;51.97
33153;BME280;19509;43.862;26.176;2023-10-19T08:02:22;100696.59;;;17.27;52.05
33153;BME280;19509;43.862;26.176;2023-10-19T08:04:50;100683.59;;;17.30;51.40
33153;BME280;19509;43.862;26.176;2023-10-19T08:07:17;100684.50;;;17.18;51.14
33153;BME280;19509;43.862;26.176;2023-10-19T08:09:43;100678.69;;;17.10;51.17
33153;BME280;19509;43.862;26.176;2023-10-19T08:12:09;100683.69;;;17.18;51.72
33153;BME280;19509;43.862;26.176;2023-10-19T08:14:36;100688.03;;;17.36;51.09
33153;BME280;19509;43.862;26.176;2023-10-19T08:17:02;100691.38;;;17.43;50.00
33153;BME280;19509;43.862;26.176;2023-10-19T08:19:28;100696.31;;;17.46;50.81
33153;BME280;19509;43.862;26.176;2023-10-19T08:21:56;100699.75;;;17.41;50.06
33153;BME280;19509;43.862;26.176;2023-10-19T08:24:23;100695.22;;;17.47;50.09
33153;BME280;19509;43.862;26.176;2023-10-19T08:26:49;100692.31;;;17.54;49.13
33153;BME280;19509;43.862;26.176;2023-10-19T08:29:16;100697.38;;;17.67;49.50
33153;BME280;19509;43.862;26.176;2023-10-19T08:31:43;100698.19;;;17.67;49.08
33153;BME280;19509;43.862;26.176;2023-10-19T08:34:12;100675.53;;;17.84;48.96
33153;BME280;19509;43.862;26.176;2023-10-19T08:36:38;100678.56;;;17.87;48.33
33153;BME280;19509;43.862;26.176;2023-10-19T08:39:08;100670.34;;;17.82;48.63
33153;BME280;19509;43.862;26.176;2023-10-19T08:41:35;100671.47;;;17.86;48.45
33153;BME280;19509;43.862;26.176;2023-10-19T08:44:03;100672.63;;;17.90;48.13
33153;BME280;19509;43.862;26.176;2023-10-19T08:46:29;100660.56;;;17.86;48.45
33153;BME280;19509;43.862;26.176;2023-10-19T08:48:57;100663.66;;;17.95;48.25
33153;BME280;19509;43.862;26.176;2023-10-19T08:51:24;100658.78;;;17.97;47.50
33153;BME280;19509;43.862;26.176;2023-10-19T08:53:53;100663.09;;;17.93;48.02
33153;BME280;19509;43.862;26.176;2023-10-19T08:56:19;100662.97;;;18.10;47.48
33153;BME280;19509;43.862;26.176;2023-10-19T08:58:45;100660.00;;;18.11;47.48
33153;BME280;19509;43.862;26.176;2023-10-19T09:01:11;100651.06;;;18.16;46.80
33153;BME280;19509;43.862;26.176;2023-10-19T09:03:38;100647.69;;;18.36;46.43
33153;BME280;19509;43.862;26.176;2023-10-19T09:06:04;100649.91;;;18.44;45.96
33153;BME280;19509;43.862;26.176;2023-10-19T09:08:30;100644.38;;;18.34;45.93
33153;BME280;19509;43.862;26.176;2023-10-19T09:11:09;100652.56;;;18.34;45.46
33153;BME280;19509;43.862;26.176;2023-10-19T09:13:47;100647.94;;;18.34;45.54
33153;BME280;19509;43.862;26.176;2023-10-19T09:16:18;100643.09;;;18.41;45.29
33153;BME280;19509;43.862;26.176;2023-10-19T09:18:44;100628.97;;;18.50;45.08
33153;BME280;19509;43.862;26.176;2023-10-19T09:21:16;100635.59;;;18.59;44.30
33153;BME280;19509;43.862;26.176;2023-10-19T09:23:52;100641.88;;;18.59;43.92
33153;BME280;19509;43.862;26.176;2023-10-19T09:26:18;100637.28;;;18.65;44.28
33153;BME280;19509;43.862;26.176;2023-10-19T09:28:47;100643.13;;;18.79;44.58
33153;BME280;19509;43.862;26.176;2023-10-19T09:31:14;100630.84;;;18.81;44.71
33153;BME280;19509;43.862;26.176;2023-10-19T09:33:44;100621.81;;;18.76;44.07
33153;BME280;19509;43.862;26.176;2023-10-19T09:36:11;100615.56;;;18.75;44.12
33153;BME280;19509;43.862;26.176;2023-10-19T09:41:11;100617.00;;;18.93;43.52
33153;BME280;19509;43.862;26.176;2023-10-19T09:43:41;100619.56;;;19.15;43.15
33153;BME280;19509;43.862;26.176;2023-10-19T09:46:08;100613.59;;;19.23;42.94
33153;BME280;19509;43.862;26.176;2023-10-19T09:48:46;100615.00;;;19.36;41.96
33153;BME280;19509;43.862;26.176;2023-10-19T09:51:14;100609.31;;;19.53;41.44
33153;BME280;19509;43.862;26.176;2023-10-19T09:53:44;100611.22;;;19.47;40.90
33153;BME280;19509;43.862;26.176;2023-10-19T09:56:16;100604.66;;;19.48;41.02
33153;BME280;19509;43.862;26.176;2023-10-19T09:58:49;100610.47;;;19.67;40.75
33153;BME280;19509;43.862;26.176;2023-10-19T10:01:16;100603.38;;;19.71;40.22
33153;BME280;19509;43.862;26.176;2023-10-19T10:03:50;100590.50;;;19.61;39.80
33153;BME280;19509;43.862;26.176;2023-10-19T10:09:21;100585.94;;;19.77;39.55
33153;BME280;19509;43.862;26.176;2023-10-19T10:11:51;100584.56;;;19.95;38.95
33153;BME280;19509;43.862;26.176;2023-10-19T10:14:25;100574.47;;;20.01;37.80
33153;BME280;19509;43.862;26.176;2023-10-19T10:17:16;100580.19;;;19.99;38.19
33153;BME280;19509;43.862;26.176;2023-10-19T10:19:44;100563.28;;;19.97;38.45
33153;BME280;19509;43.862;26.176;2023-10-19T10:22:10;100559.69;;;20.07;38.74
33153;BME280;19509;43.862;26.176;2023-10-19T10:24:46;100552.31;;;19.82;39.19
33153;BME280;19509;43.862;26.176;2023-10-19T10:27:16;100542.78;;;19.84;39.02
33153;BME280;19509;43.862;26.176;2023-10-19T10:29:58;100546.56;;;20.14;37.81
33153;BME280;19509;43.862;26.176;2023-10-19T10:32:50;100541.66;;;20.26;37.83
33153;BME280;19509;43.862;26.176;2023-10-19T10:38:06;100523.31;;;20.42;36.80
33153;BME280;19509;43.862;26.176;2023-10-19T10:40:52;100523.56;;;20.46;36.90
33153;BME280;19509;43.862;26.176;2023-10-19T10:43:19;100515.13;;;20.27;36.69
33153;BME280;19509;43.862;26.176;2023-10-19T10:45:46;100517.34;;;20.20;37.17
33153;BME280;19509;43.862;26.176;2023-10-19T10:48:16;100515.16;;;20.17;37.67
33153;BME280;19509;43.862;26.176;2023-10-19T10:50:42;100511.31;;;20.23;37.88
33153;BME280;19509;43.862;26.176;2023-10-19T10:53:13;100513.16;;;20.48;37.99
33153;BME280;19509;43.862;26.176;2023-10-19T10:55:42;100503.84;;;20.69;37.26
33153;BME280;19509;43.862;26.176;2023-10-19T10:58:08;100498.84;;;20.82;35.29
33153;BME280;19509;43.862;26.176;2023-10-19T11:00:34;100488.91;;;21.01;35.19
33153;BME280;19509;43.862;26.176;2023-10-19T11:03:03;100493.44;;;21.21;34.96
33153;BME280;19509;43.862;26.176;2023-10-19T11:05:30;100490.41;;;21.27;35.92
33153;BME280;19509;43.862;26.176;2023-10-19T11:08:14;100478.41;;;21.18;35.56
33153;BME280;19509;43.862;26.176;2023-10-19T11:10:44;100472.72;;;21.10;36.18
33153;BME280;19509;43.862;26.176;2023-10-19T11:13:13;100476.78;;;21.17;36.29
33153;BME280;19509;43.862;26.176;2023-10-19T11:15:47;100478.97;;;21.15;36.53
33153;BME280;19509;43.862;26.176;2023-10-19T11:18:30;100475.41;;;21.20;36.14
33153;BME280;19509;43.862;26.176;2023-10-19T11:20:56;100465.22;;;21.25;36.22
33153;BME280;19509;43.862;26.176;2023-10-19T11:23:54;100458.41;;;21.23;35.34
33153;BME280;19509;43.862;26.176;2023-10-19T11:26:21;100463.22;;;21.41;35.31
33153;BME280;19509;43.862;26.176;2023-10-19T11:28:57;100466.09;;;21.60;34.94
33153;BME280;19509;43.862;26.176;2023-10-19T11:31:23;100453.47;;;21.64;34.26
33153;BME280;19509;43.862;26.176;2023-10-19T11:33:50;100440.00;;;21.68;33.92
33153;BME280;19509;43.862;26.176;2023-10-19T11:36:17;100434.53;;;21.68;34.14
33153;BME280;19509;43.862;26.176;2023-10-19T11:38:44;100439.56;;;21.85;33.99
33153;BME280;19509;43.862;26.176;2023-10-19T11:41:15;100436.28;;;21.83;33.88
33153;BME280;19509;43.862;26.176;2023-10-19T11:43:42;100435.25;;;21.79;33.43
33153;BME280;19509;43.862;26.176;2023-10-19T11:46:09;100435.34;;;21.68;33.60
33153;BME280;19509;43.862;26.176;2023-10-19T11:48:36;100438.03;;;21.73;34.04
33153;BME280;19509;43.862;26.176;2023-10-19T11:51:02;100421.00;;;21.77;33.95
33153;BME280;19509;43.862;26.176;2023-10-19T11:53:38;100414.34;;;21.88;33.85
33153;BME280;19509;43.862;26.176;2023-10-19T11:56:05;100411.38;;;21.84;33.79
33153;BME280;19509;43.862;26.176;2023-10-19T11:58:35;100416.63;;;21.81;34.06
33153;BME280;19509;43.862;26.176;2023-10-19T12:01:04;100416.78;;;22.13;33.86
33153;BME280;19509;43.862;26.176;2023-10-19T12:03:37;100411.44;;;22.27;32.49
33153;BME280;19509;43.862;26.176;2023-10-19T12:06:05;100412.75;;;21.82;32.83
33153;BME280;19509;43.862;26.176;2023-10-19T12:08:32;100400.88;;;21.91;32.48
33153;BME280;19509;43.862;26.176;2023-10-19T12:10:59;100394.16;;;22.03;32.63
33153;BME280;19509;43.862;26.176;2023-10-19T12:13:27;100399.06;;;22.06;32.06
33153;BME280;19509;43.862;26.176;2023-10-19T12:15:53;100393.16;;;22.23;31.59
33153;BME280;19509;43.862;26.176;2023-10-19T12:18:20;100394.97;;;22.32;31.52
33153;BME280;19509;43.862;26.176;2023-10-19T12:20:46;100389.63;;;22.41;31.49
33153;BME280;19509;43.862;26.176;2023-10-19T12:23:13;100383.28;;;22.46;31.53
33153;BME280;19509;43.862;26.176;2023-10-19T12:25:38;100393.13;;;22.47;31.08
33153;BME280;19509;43.862;26.176;2023-10-19T12:28:08;100388.31;;;22.38;30.60
33153;BME280;19509;43.862;26.176;2023-10-19T12:30:37;100388.66;;;22.32;30.47
33153;BME280;19509;43.862;26.176;2023-10-19T12:33:04;100387.75;;;22.12;30.98
33153;BME280;19509;43.862;26.176;2023-10-19T12:35:42;100373.06;;;22.27;30.87
33153;BME280;19509;43.862;26.176;2023-10-19T12:38:13;100365.03;;;22.36;30.38
33153;BME280;19509;43.862;26.176;2023-10-19T12:40:45;100369.34;;;22.42;30.21
33153;BME280;19509;43.862;26.176;2023-10-19T12:43:12;100361.75;;;22.34;30.40
33153;BME280;19509;43.862;26.176;2023-10-19T12:45:39;100377.78;;;22.46;29.30
33153;BME280;19509;43.862;26.176;2023-10-19T12:48:05;100374.34;;;22.35;29.33
33153;BME280;19509;43.862;26.176;2023-10-19T12:50:33;100366.38;;;22.38;29.42
33153;BME280;19509;43.862;26.176;2023-10-19T12:52:59;100365.38;;;22.48;30.01
33153;BME280;19509;43.862;26.176;2023-10-19T12:55:25;100367.72;;;22.60;29.83
33153;BME280;19509;43.862;26.176;2023-10-19T12:57:53;100362.66;;;22.67;29.12
33153;BME280;19509;43.862;26.176;2023-10-19T13:00:18;100355.09;;;22.40;29.02
33153;BME280;19509;43.862;26.176;2023-10-19T13:03:04;100362.34;;;22.07;29.55
33153;BME280;19509;43.862;26.176;2023-10-19T13:05:35;100354.06;;;21.88;29.84
33153;BME280;19509;43.862;26.176;2023-10-19T13:08:01;100359.38;;;21.79;29.85